Time;durP1;ratioP1;P1;durP2;ratioP2;P2;SDS_P1;SDS_P2;PMS_P1;PMS_P2;Temp;Humidity;BMP_temperature;BMP_pressure;BME280_temperature;BME280_humidity;BME280_pressure;Samples;Min_cycle;Max_cycle;Signal;HPM_P1;HPM_P2
2022/05/09 00:00:10;;;;;;;7.95;5.55;;;17.80;99.90;;;;;;4990509;28;20037;-86
2022/05/09 00:02:38;;;;;;;8.85;5.35;;;17.80;99.90;;;;;;4984142;28;20049;-87
2022/05/09 00:05:16;;;;;;;7.90;5.40;;;17.70;99.90;;;;;;4983837;28;20616;-87
2022/05/09 00:08:15;;;;;;;6.65;5.30;;;17.70;99.90;;;;;;4984017;28;20031;-87
2022/05/09 00:10:41;;;;;;;7.95;5.43;;;17.60;99.90;;;;;;4968645;28;20457;-87
2022/05/09 00:13:07;;;;;;;11.65;6.20;;;17.50;99.90;;;;;;4967634;28;20026;-86
2022/05/09 00:15:33;;;;;;;6.40;5.22;;;17.50;99.90;;;;;;4982384;28;20520;-88
2022/05/09 00:17:58;;;;;;;9.40;5.32;;;17.60;99.90;;;;;;4984903;28;20029;-91
2022/05/09 00:20:24;;;;;;;7.07;5.75;;;17.60;99.90;;;;;;4989232;28;20057;-88
2022/05/09 00:22:52;;;;;;;7.20;5.60;;;17.60;99.90;;;;;;4982859;28;20025;-88
2022/05/09 00:25:21;;;;;;;5.22;4.68;;;17.50;99.90;;;;;;4987915;28;20027;-89
2022/05/09 00:27:47;;;;;;;7.75;5.07;;;17.40;99.90;;;;;;4983884;28;20496;-89
2022/05/09 00:30:14;;;;;;;5.75;5.03;;;17.40;99.90;;;;;;4982784;28;20080;-89
2022/05/09 00:32:40;;;;;;;5.60;5.10;;;17.40;99.90;;;;;;4982255;28;20096;-91
2022/05/09 00:35:07;;;;;;;6.60;5.35;;;17.40;99.90;;;;;;4971514;28;20529;-91
2022/05/09 00:37:33;;;;;;;7.25;4.90;;;17.50;99.90;;;;;;4982986;28;20030;-90
2022/05/09 00:40:00;;;;;;;7.25;5.05;;;17.50;99.90;;;;;;4971658;28;20030;-89
2022/05/09 00:42:29;;;;;;;6.22;5.50;;;17.50;99.90;;;;;;4981839;28;20517;-88
2022/05/09 00:45:10;;;;;;;8.35;5.05;;;17.50;99.90;;;;;;4985908;28;20445;-88
2022/05/09 00:48:20;;;;;;;11.10;5.03;;;17.40;99.90;;;;;;4985078;28;20466;-88
2022/05/09 00:51:12;;;;;;;8.18;5.43;;;17.40;99.90;;;;;;4938659;28;20181;-86
2022/05/09 00:54:05;;;;;;;7.43;5.83;;;17.30;99.90;;;;;;4982359;28;20410;-86
2022/05/09 01:03:26;;;;;;;12.52;5.22;;;17.30;99.90;;;;;;4981614;28;20436;-87
2022/05/09 01:05:52;;;;;;;7.72;5.70;;;17.20;99.90;;;;;;4943062;28;20405;-89
2022/05/09 01:11:46;;;;;;;9.40;5.35;;;17.10;99.90;;;;;;4957821;28;20042;-86
2022/05/09 01:17:52;;;;;;;6.15;5.32;;;17.10;99.90;;;;;;4942839;28;20758;-88
2022/05/09 01:20:18;;;;;;;16.30;5.65;;;17.20;99.90;;;;;;4956337;28;20039;-88
2022/05/09 01:22:44;;;;;;;6.25;4.97;;;17.10;99.90;;;;;;4977091;28;20035;-89
2022/05/09 01:25:20;;;;;;;7.00;5.28;;;17.10;99.90;;;;;;4981143;28;20038;-86
2022/05/09 01:27:49;;;;;;;6.43;4.82;;;17.10;99.90;;;;;;4981938;28;20014;-89
2022/05/09 01:30:27;;;;;;;6.15;4.82;;;17.10;99.90;;;;;;4980370;28;20378;-88
2022/05/09 01:33:09;;;;;;;5.63;5.00;;;17.10;99.90;;;;;;4984953;28;20015;-87
2022/05/09 01:35:57;;;;;;;7.55;5.10;;;17.10;99.90;;;;;;4981771;28;20514;-89
2022/05/09 01:38:34;;;;;;;8.55;5.20;;;17.10;99.90;;;;;;4970462;28;20088;-88
2022/05/09 01:41:00;;;;;;;5.45;4.93;;;17.00;99.90;;;;;;4982077;28;20026;-88
2022/05/09 01:43:38;;;;;;;8.15;4.75;;;17.00;99.90;;;;;;4984095;28;20034;-89
2022/05/09 01:46:07;;;;;;;6.38;4.10;;;17.00;99.90;;;;;;4965937;28;20026;-87
2022/05/09 01:51:18;;;;;;;7.05;4.15;;;17.00;99.90;;;;;;4988057;28;20089;-89
2022/05/09 01:53:53;;;;;;;7.40;4.38;;;17.00;99.90;;;;;;4960301;28;20474;-87
2022/05/09 01:56:22;;;;;;;10.15;4.07;;;17.20;99.90;;;;;;4964468;28;20031;-89
2022/05/09 01:58:49;;;;;;;4.95;3.88;;;17.20;99.90;;;;;;4979163;28;20038;-87
2022/05/09 02:01:18;;;;;;;11.70;3.95;;;17.40;99.90;;;;;;4982289;28;20026;-89
2022/05/09 02:03:47;;;;;;;4.43;4.00;;;17.40;99.90;;;;;;4965682;28;20557;-87
2022/05/09 02:06:17;;;;;;;8.40;4.15;;;17.60;99.90;;;;;;4965018;28;20027;-88
2022/05/09 02:08:44;;;;;;;4.18;3.78;;;17.70;99.90;;;;;;4962160;28;20035;-88
2022/05/09 02:11:16;;;;;;;4.70;4.30;;;17.70;99.90;;;;;;4980888;28;20070;-88
2022/05/09 02:13:45;;;;;;;6.90;4.25;;;17.70;99.90;;;;;;4964709;28;20121;-86
2022/05/09 02:16:19;;;;;;;7.13;4.40;;;17.80;99.90;;;;;;4987280;28;20034;-88
2022/05/09 02:18:49;;;;;;;7.90;5.10;;;17.90;99.90;;;;;;4965982;28;20062;-87
2022/05/09 02:21:22;;;;;;;7.55;4.70;;;18.00;99.90;;;;;;4982559;28;20022;-86
2022/05/09 02:23:56;;;;;;;5.75;4.32;;;18.00;99.90;;;;;;4984257;28;20038;-86
2022/05/09 02:26:24;;;;;;;5.07;4.57;;;18.10;99.90;;;;;;4982949;28;20062;-90
2022/05/09 02:28:50;;;;;;;6.63;4.53;;;18.10;99.90;;;;;;4979310;28;20039;-89
2022/05/09 02:31:19;;;;;;;8.15;4.53;;;18.10;99.90;;;;;;4983693;28;20394;-89
2022/05/09 02:33:44;;;;;;;8.63;4.88;;;18.10;99.90;;;;;;4984201;28;20239;-90
2022/05/09 02:36:10;;;;;;;6.70;4.80;;;18.00;99.90;;;;;;4984243;28;20031;-90
2022/05/09 02:38:36;;;;;;;8.50;5.10;;;18.00;99.90;;;;;;4985835;28;20030;-88
2022/05/09 02:41:01;;;;;;;10.65;5.05;;;18.00;99.90;;;;;;4980872;28;20089;-89
2022/05/09 02:43:28;;;;;;;7.70;4.75;;;18.00;99.90;;;;;;4980142;28;20101;-90
2022/05/09 02:45:55;;;;;;;7.07;5.18;;;18.00;99.90;;;;;;4982650;28;20416;-89
2022/05/09 02:48:21;;;;;;;6.68;4.82;;;18.10;99.90;;;;;;4984528;28;20062;-88
2022/05/09 02:50:47;;;;;;;8.43;5.10;;;18.10;99.90;;;;;;4979529;28;20506;-89
2022/05/09 02:53:13;;;;;;;9.40;4.60;;;18.00;99.90;;;;;;4982225;28;20022;-90
2022/05/09 02:55:41;;;;;;;5.15;4.65;;;17.90;99.90;;;;;;4984617;28;20398;-90
2022/05/09 02:58:10;;;;;;;5.82;4.57;;;17.80;99.90;;;;;;4980511;28;20466;-92
2022/05/09 03:00:38;;;;;;;7.75;5.07;;;17.70;99.90;;;;;;4979752;28;20038;-88
2022/05/09 03:05:48;;;;;;;7.47;5.05;;;17.60;99.90;;;;;;4977370;28;20034;-91
2022/05/09 03:08:15;;;;;;;7.93;4.85;;;17.50;99.90;;;;;;4981922;28;20394;-92
2022/05/09 03:10:41;;;;;;;6.35;4.78;;;17.40;99.90;;;;;;4982434;28;20039;-92
2022/05/09 03:13:12;;;;;;;6.60;4.97;;;17.30;99.90;;;;;;4981354;28;20393;-90
2022/05/09 03:15:44;;;;;;;8.05;4.57;;;17.30;99.90;;;;;;4968188;28;20061;-90
2022/05/09 03:18:55;;;;;;;;;;;;;;;;;;;;;
2022/05/09 03:25:07;;;;;;;7.07;5.38;;;17.40;99.90;;;;;;4989460;28;20414;-88
2022/05/09 03:27:40;;;;;;;5.57;5.07;;;17.60;99.90;;;;;;4982865;28;20096;-89
2022/05/09 03:30:11;;;;;;;7.28;4.95;;;17.60;99.90;;;;;;4974298;28;20069;-90
2022/05/09 03:33:39;;;;;;;;;;;;;;;;;;;;;
2022/05/09 03:36:05;;;;;;;9.77;5.25;;;17.60;99.90;;;;;;4900695;29;20053;-89
2022/05/09 03:38:31;;;;;;;7.28;4.85;;;17.70;99.90;;;;;;4901109;29;20044;-91
2022/05/09 03:41:45;;;;;;;5.25;4.72;;;17.70;99.90;;;;;;4904487;29;20041;-87
2022/05/09 03:44:34;;;;;;;6.32;5.03;;;17.70;99.90;;;;;;4877603;29;20091;-89
2022/05/09 03:46:59;;;;;;;6.60;4.57;;;17.60;99.90;;;;;;4910707;29;20087;-90
2022/05/09 03:49:33;;;;;;;8.13;4.72;;;17.80;99.90;;;;;;4908873;29;20086;-87
2022/05/09 03:52:03;;;;;;;10.15;4.90;;;17.80;99.90;;;;;;4899455;28;20115;-85
2022/05/09 03:54:28;;;;;;;5.68;4.30;;;17.80;99.90;;;;;;4990207;28;20037;-88
2022/05/09 03:56:54;;;;;;;6.32;4.32;;;17.80;99.90;;;;;;4951195;28;20047;-89
2022/05/09 03:59:20;;;;;;;6.82;4.72;;;17.90;99.90;;;;;;4936024;29;20090;-88
2022/05/09 04:01:46;;;;;;;12.68;4.60;;;17.90;99.90;;;;;;4935961;28;20395;-90
2022/05/09 04:04:11;;;;;;;5.63;4.45;;;17.90;99.90;;;;;;4941221;29;20126;-88
2022/05/09 04:06:38;;;;;;;7.75;4.38;;;17.90;99.90;;;;;;4945834;28;20066;-87
2022/05/09 04:09:05;;;;;;;6.00;4.13;;;17.90;99.90;;;;;;4939751;29;20036;-87
2022/05/09 04:11:31;;;;;;;6.40;3.95;;;17.90;99.90;;;;;;4946771;28;20031;-87
2022/05/09 04:13:57;;;;;;;7.10;4.57;;;18.00;99.90;;;;;;4943560;29;20091;-87
2022/05/09 04:19:30;;;;;;;6.25;4.10;;;18.00;99.90;;;;;;4947072;29;20073;-87
2022/05/09 04:22:05;;;;;;;9.02;4.47;;;18.00;99.90;;;;;;4944219;28;20039;-86
2022/05/09 04:24:45;;;;;;;4.47;4.07;;;18.00;99.90;;;;;;4926475;29;20074;-85
2022/05/09 04:27:11;;;;;;;4.90;4.40;;;18.10;99.90;;;;;;4928938;29;20119;-88
2022/05/09 04:29:36;;;;;;;6.47;4.28;;;18.10;99.90;;;;;;4930333;29;20106;-89
2022/05/09 04:32:03;;;;;;;7.97;4.30;;;18.20;99.90;;;;;;4945635;28;20038;-89
2022/05/09 04:34:35;;;;;;;7.22;4.22;;;18.30;99.90;;;;;;4952850;28;20039;-88
2022/05/09 04:37:01;;;;;;;6.93;4.38;;;18.30;99.90;;;;;;4944127;28;20121;-86
2022/05/09 04:39:35;;;;;;;7.15;4.30;;;18.30;99.90;;;;;;4924416;29;20118;-87
2022/05/09 04:42:01;;;;;;;9.73;4.43;;;18.40;99.90;;;;;;4945583;28;20074;-89
2022/05/09 04:44:30;;;;;;;5.72;4.32;;;18.50;99.90;;;;;;4940340;29;20511;-86
2022/05/09 04:46:56;;;;;;;6.82;4.30;;;18.50;99.90;;;;;;4930500;29;20050;-87
2022/05/09 04:49:22;;;;;;;5.05;3.70;;;18.60;99.90;;;;;;4947089;28;20483;-87
2022/05/09 04:51:47;;;;;;;7.78;4.03;;;18.70;99.90;;;;;;4943858;28;20031;-87
2022/05/09 04:54:14;;;;;;;6.47;4.35;;;18.70;99.90;;;;;;4946452;29;20111;-88
2022/05/09 04:56:40;;;;;;;6.43;4.40;;;18.70;99.90;;;;;;4949181;28;20410;-88
2022/05/09 04:59:06;;;;;;;7.65;4.78;;;18.80;99.90;;;;;;4959017;28;20031;-88
2022/05/09 05:01:32;;;;;;;5.60;4.50;;;18.80;99.90;;;;;;4948523;28;20547;-88
2022/05/09 05:03:59;;;;;;;10.23;3.97;;;18.90;99.90;;;;;;4968016;28;20490;-87
2022/05/09 05:06:25;;;;;;;5.05;4.35;;;18.90;99.90;;;;;;4947266;28;20035;-88
2022/05/09 05:08:51;;;;;;;8.45;5.25;;;19.00;99.90;;;;;;4964655;28;20102;-90
2022/05/09 05:11:17;;;;;;;7.00;3.78;;;19.00;99.90;;;;;;4963214;28;20526;-86
2022/05/09 05:13:43;;;;;;;5.10;4.18;;;19.10;99.90;;;;;;4948001;28;20067;-88
2022/05/09 05:16:09;;;;;;;5.60;4.20;;;19.10;99.90;;;;;;4949112;28;20091;-88
2022/05/09 05:18:35;;;;;;;6.13;4.15;;;19.10;99.90;;;;;;4963365;28;20426;-91
2022/05/09 05:21:09;;;;;;;6.75;4.70;;;19.10;99.90;;;;;;4949597;28;20039;-88
2022/05/09 05:23:35;;;;;;;10.98;4.60;;;19.20;99.90;;;;;;4946806;29;20027;-89
2022/05/09 05:26:07;;;;;;;6.90;4.85;;;19.20;99.90;;;;;;4943994;28;20031;-88
2022/05/09 05:28:39;;;;;;;6.32;4.93;;;19.20;99.90;;;;;;4966435;28;20526;-90
2022/05/09 05:31:16;;;;;;;6.40;4.50;;;19.20;99.90;;;;;;4966643;28;20050;-87
2022/05/09 05:33:44;;;;;;;5.10;4.10;;;19.30;99.90;;;;;;4967060;28;20023;-91
2022/05/09 05:36:19;;;;;;;5.63;4.20;;;19.30;99.90;;;;;;4965271;28;20129;-94
2022/05/09 05:39:03;;;;;;;4.82;4.22;;;19.30;99.90;;;;;;4964126;28;20032;-86
2022/05/09 05:41:52;;;;;;;5.00;4.40;;;19.40;99.90;;;;;;4961513;28;20020;-90
2022/05/09 05:44:17;;;;;;;5.20;3.85;;;19.50;99.90;;;;;;4966534;28;20068;-92
2022/05/09 05:46:43;;;;;;;9.35;4.68;;;19.60;99.90;;;;;;4962891;28;20027;-90
2022/05/09 05:49:09;;;;;;;7.95;4.60;;;19.70;99.90;;;;;;4970118;28;20486;-90
2022/05/09 05:51:36;;;;;;;8.02;4.70;;;19.80;99.90;;;;;;4962662;28;20030;-90
2022/05/09 05:54:03;;;;;;;4.63;3.90;;;19.80;99.90;;;;;;4956499;28;20030;-88
2022/05/09 05:56:29;;;;;;;10.52;4.38;;;19.80;99.90;;;;;;4965228;28;20093;-88
2022/05/09 05:58:55;;;;;;;8.35;4.35;;;19.80;99.90;;;;;;4958382;28;20522;-89
2022/05/09 06:01:22;;;;;;;4.78;4.28;;;19.70;99.90;;;;;;4964374;28;20019;-90
2022/05/09 06:03:48;;;;;;;8.05;4.55;;;19.70;99.90;;;;;;4928288;29;20118;-90
2022/05/09 06:06:15;;;;;;;6.85;4.35;;;19.70;99.90;;;;;;4965490;28;20023;-91
2022/05/09 06:08:43;;;;;;;6.68;4.10;;;19.70;99.90;;;;;;4960071;28;20023;-90
2022/05/09 06:11:10;;;;;;;5.97;4.05;;;19.80;99.90;;;;;;4962388;28;20042;-92
2022/05/09 06:13:36;;;;;;;6.57;4.28;;;19.90;99.90;;;;;;4962459;28;20135;-90
2022/05/09 06:16:02;;;;;;;5.38;4.45;;;19.90;99.90;;;;;;4963904;28;20061;-92
2022/05/09 06:18:28;;;;;;;6.40;4.75;;;19.90;99.90;;;;;;4963950;28;20098;-92
2022/05/09 06:20:54;;;;;;;7.32;4.30;;;20.00;99.90;;;;;;4968504;28;21091;-90
2022/05/09 06:23:21;;;;;;;6.43;4.68;;;20.10;99.90;;;;;;4961418;28;20030;-90
2022/05/09 06:25:48;;;;;;;11.43;4.70;;;19.80;99.90;;;;;;4972541;28;20031;-96
2022/05/09 06:28:15;;;;;;;5.90;4.57;;;19.90;99.90;;;;;;4967246;28;20023;-92
2022/05/09 06:30:42;;;;;;;7.38;4.47;;;19.90;99.90;;;;;;4966647;28;20565;-93
2022/05/09 06:33:08;;;;;;;7.88;4.78;;;20.10;99.90;;;;;;4965786;28;20027;-93
2022/05/09 06:35:40;;;;;;;11.95;4.78;;;20.10;99.90;;;;;;4952231;28;20034;-92
2022/05/09 06:38:06;;;;;;;9.60;4.75;;;20.30;99.90;;;;;;4966504;28;20074;-94
2022/05/09 06:40:35;;;;;;;6.00;4.53;;;20.30;99.90;;;;;;4966463;28;20129;-91
2022/05/09 06:43:03;;;;;;;6.32;5.07;;;20.30;99.90;;;;;;4959329;28;20019;-92
2022/05/09 06:45:29;;;;;;;7.03;4.75;;;20.20;99.90;;;;;;4946990;28;20084;-92
2022/05/09 06:47:56;;;;;;;5.28;4.78;;;20.20;99.90;;;;;;4961872;28;20521;-92
2022/05/09 06:50:24;;;;;;;5.38;4.88;;;20.20;99.90;;;;;;4952672;28;20052;-91
2022/05/09 06:52:50;;;;;;;7.90;4.72;;;20.10;99.90;;;;;;4968932;28;20023;-92
2022/05/09 06:55:16;;;;;;;6.82;4.88;;;20.10;99.90;;;;;;4955800;28;20430;-92
2022/05/09 06:57:44;;;;;;;5.72;4.70;;;20.10;99.90;;;;;;4963587;28;20126;-90
2022/05/09 07:00:15;;;;;;;6.68;4.75;;;20.10;99.90;;;;;;4951998;28;20430;-91
2022/05/09 07:02:41;;;;;;;8.02;4.93;;;20.10;99.90;;;;;;4951903;28;20122;-92
2022/05/09 07:05:09;;;;;;;9.40;4.70;;;20.10;99.90;;;;;;4955348;28;20465;-92
2022/05/09 07:07:35;;;;;;;5.95;4.38;;;20.20;99.90;;;;;;4953756;28;20204;-84
2022/05/09 07:10:01;;;;;;;5.82;4.47;;;20.30;99.90;;;;;;4971809;28;20027;-94
2022/05/09 07:12:27;;;;;;;5.13;4.60;;;20.40;99.90;;;;;;4972051;28;20027;-90
2022/05/09 07:14:55;;;;;;;7.68;4.68;;;20.50;99.90;;;;;;4969964;28;20055;-90
2022/05/09 07:17:24;;;;;;;11.73;4.35;;;20.60;99.90;;;;;;4968861;28;20101;-88
2022/05/09 07:19:49;;;;;;;7.15;4.90;;;20.70;99.90;;;;;;4970865;28;20062;-87
2022/05/09 07:22:15;;;;;;;8.10;5.03;;;20.90;99.90;;;;;;4966222;28;20493;-88
2022/05/09 07:24:41;;;;;;;7.43;4.78;;;21.00;99.90;;;;;;4955372;28;20119;-88
2022/05/09 07:27:07;;;;;;;5.90;4.60;;;21.20;99.90;;;;;;4967279;28;20026;-89
2022/05/09 07:29:36;;;;;;;8.90;4.53;;;21.40;99.90;;;;;;4963773;28;20030;-87
2022/05/09 07:32:05;;;;;;;5.50;4.55;;;21.70;99.90;;;;;;4963631;28;20479;-86
2022/05/09 07:34:31;;;;;;;5.78;4.53;;;21.90;99.90;;;;;;4963856;28;20023;-88
2022/05/09 07:37:02;;;;;;;7.93;4.55;;;22.20;99.90;;;;;;4971168;28;20026;-88
2022/05/09 07:39:28;;;;;;;9.23;4.93;;;22.50;99.90;;;;;;4968758;28;20026;-93
2022/05/09 07:41:54;;;;;;;8.60;5.03;;;22.60;99.90;;;;;;4965674;28;20434;-85
2022/05/09 07:44:19;;;;;;;6.82;4.75;;;22.60;99.90;;;;;;4964744;28;20110;-88
2022/05/09 07:46:45;;;;;;;6.25;5.05;;;22.60;99.90;;;;;;4951487;28;20054;-89
2022/05/09 07:49:11;;;;;;;6.97;4.57;;;22.60;99.90;;;;;;4965843;28;20027;-86
2022/05/09 07:51:37;;;;;;;8.02;5.20;;;22.60;99.90;;;;;;4964818;28;20035;-86
2022/05/09 07:54:04;;;;;;;6.50;4.60;;;22.60;99.90;;;;;;4968850;28;20501;-90
2022/05/09 07:56:30;;;;;;;7.63;4.95;;;22.70;99.90;;;;;;4963333;28;20093;-87
2022/05/09 07:58:55;;;;;;;15.27;5.00;;;22.90;99.90;;;;;;4961644;28;20031;-88
2022/05/09 08:01:21;;;;;;;5.60;4.60;;;22.90;99.90;;;;;;4964050;28;20039;-86
2022/05/09 08:03:47;;;;;;;5.70;4.50;;;22.90;99.90;;;;;;4960865;28;20031;-88
2022/05/09 08:06:13;;;;;;;5.20;4.30;;;22.90;99.90;;;;;;4965037;28;20042;-87
2022/05/09 08:08:40;;;;;;;8.75;4.65;;;22.90;99.90;;;;;;4964001;28;20509;-86
2022/05/09 08:11:07;;;;;;;6.55;4.72;;;22.80;99.90;;;;;;4945572;28;20038;-86
2022/05/09 08:13:34;;;;;;;7.53;4.93;;;22.70;99.90;;;;;;4962901;28;20027;-89
2022/05/09 08:16:02;;;;;;;8.43;5.25;;;22.60;99.90;;;;;;4966068;28;20042;-87
2022/05/09 08:18:30;;;;;;;6.00;5.03;;;22.50;99.90;;;;;;4963732;28;20050;-86
2022/05/09 08:20:57;;;;;;;9.38;4.88;;;22.40;99.90;;;;;;4969311;28;20031;-86
2022/05/09 08:23:23;;;;;;;7.10;4.70;;;22.40;99.90;;;;;;4963181;28;20027;-88
2022/05/09 08:25:55;;;;;;;5.25;4.70;;;22.40;99.90;;;;;;4959902;28;20074;-86
2022/05/09 08:28:21;;;;;;;6.65;4.93;;;22.70;99.90;;;;;;4946682;28;20058;-86
2022/05/09 08:30:49;;;;;;;7.43;4.75;;;22.80;99.90;;;;;;4963952;28;20048;-87
2022/05/09 08:33:17;;;;;;;10.45;5.57;;;23.00;99.90;;;;;;4948204;28;20514;-86
2022/05/09 08:35:46;;;;;;;6.32;4.53;;;23.10;99.90;;;;;;4963586;28;20097;-87
2022/05/09 08:38:13;;;;;;;7.80;5.18;;;23.30;99.90;;;;;;4947716;28;20030;-86
2022/05/09 08:41:01;;;;;;;9.35;5.03;;;23.60;99.90;;;;;;4965599;28;20608;-87
2022/05/09 08:43:27;;;;;;;7.38;4.25;;;23.90;99.90;;;;;;4966303;28;20085;-87
2022/05/09 08:46:12;;;;;;;6.43;4.68;;;24.10;99.90;;;;;;4968163;28;20034;-88
2022/05/09 08:48:53;;;;;;;7.55;4.40;;;24.10;99.90;;;;;;4965824;28;20081;-87
2022/05/09 08:51:34;;;;;;;7.22;4.70;;;24.00;99.90;;;;;;4964281;28;20035;-87
2022/05/09 08:54:05;;;;;;;5.50;4.38;;;23.90;99.90;;;;;;4955647;28;20404;-89
2022/05/09 08:56:34;;;;;;;6.03;4.43;;;24.00;99.90;;;;;;4959418;28;20028;-87
2022/05/09 08:59:11;;;;;;;7.50;4.85;;;24.00;99.90;;;;;;4951956;29;20447;-87
2022/05/09 09:02:05;;;;;;;6.68;4.60;;;24.10;99.90;;;;;;4950770;28;20036;-87
2022/05/09 09:04:34;;;;;;;5.63;4.57;;;24.20;99.90;;;;;;4937377;29;20034;-85
2022/05/09 09:07:12;;;;;;;11.10;4.97;;;24.20;99.90;;;;;;4952411;28;20031;-88
2022/05/09 09:09:38;;;;;;;14.02;4.88;;;24.30;99.90;;;;;;4960382;28;20035;-86
2022/05/09 09:12:28;;;;;;;10.25;4.32;;;24.30;99.90;;;;;;4961128;28;20045;-87
2022/05/09 09:14:54;;;;;;;7.18;4.72;;;24.20;99.90;;;;;;4953597;28;20027;-88
2022/05/09 09:17:49;;;;;;;6.15;4.55;;;24.10;99.90;;;;;;4942866;29;20027;-88
2022/05/09 09:20:23;;;;;;;5.03;4.47;;;23.90;99.90;;;;;;4951703;29;20086;-88
2022/05/09 09:23:07;;;;;;;11.05;5.03;;;23.60;99.90;;;;;;4960684;28;20015;-88
2022/05/09 09:25:42;;;;;;;9.55;5.10;;;23.60;99.90;;;;;;4954586;28;20035;-88
2022/05/09 09:28:16;;;;;;;4.53;4.13;;;23.70;99.90;;;;;;4949897;28;20478;-89
2022/05/09 09:30:44;;;;;;;8.73;4.80;;;23.70;99.90;;;;;;4936100;29;20541;-89
2022/05/09 09:33:13;;;;;;;7.45;4.57;;;23.60;99.90;;;;;;4951211;28;20019;-89
2022/05/09 09:36:06;;;;;;;9.68;5.65;;;23.50;99.90;;;;;;4938028;29;20094;-89
2022/05/09 09:38:45;;;;;;;8.13;4.57;;;23.50;99.90;;;;;;4951121;28;20110;-87
2022/05/09 09:41:16;;;;;;;13.00;5.57;;;23.60;99.90;;;;;;4952090;28;20031;-87
2022/05/09 09:43:42;;;;;;;6.88;5.10;;;23.60;99.90;;;;;;4949657;28;20026;-88
2022/05/09 09:46:09;;;;;;;6.80;4.60;;;23.90;99.90;;;;;;4950010;28;20034;-92
2022/05/09 09:48:35;;;;;;;13.32;4.78;;;23.90;99.90;;;;;;4950412;29;20542;-88
2022/05/09 09:51:04;;;;;;;5.50;4.93;;;24.00;99.90;;;;;;4952188;28;20051;-90
2022/05/09 09:53:57;;;;;;;8.32;4.60;;;24.00;99.90;;;;;;4951090;28;20059;-88
2022/05/09 09:56:23;;;;;;;18.30;4.50;;;24.10;99.90;;;;;;4952676;28;20123;-89
2022/05/09 09:59:09;;;;;;;7.93;4.85;;;24.30;99.90;;;;;;4960353;28;20062;-88
2022/05/09 10:01:35;;;;;;;5.63;4.15;;;24.50;99.90;;;;;;4964651;28;20372;-88
2022/05/09 10:04:06;;;;;;;10.65;5.03;;;24.70;99.90;;;;;;4959418;28;20038;-88
2022/05/09 10:06:33;;;;;;;11.50;4.53;;;24.80;99.90;;;;;;4966632;28;20026;-88
2022/05/09 10:09:06;;;;;;;16.45;4.78;;;24.90;99.90;;;;;;4959604;28;20035;-88
2022/05/09 10:11:33;;;;;;;6.10;5.28;;;25.00;99.90;;;;;;4964274;28;20035;-87
2022/05/09 10:14:02;;;;;;;7.25;4.55;;;25.10;99.90;;;;;;4958777;28;20034;-87
2022/05/09 10:16:45;;;;;;;12.10;4.85;;;25.20;99.90;;;;;;4962891;28;20513;-89
2022/05/09 10:19:27;;;;;;;17.20;5.75;;;25.20;99.90;;;;;;4949699;28;20039;-89
2022/05/09 10:24:48;;;;;;;5.60;4.40;;;25.30;99.90;;;;;;4966813;28;20182;-89
2022/05/09 10:27:20;;;;;;;5.32;4.60;;;25.60;99.90;;;;;;4959175;28;20031;-89
2022/05/09 10:29:48;;;;;;;8.48;4.53;;;25.90;99.90;;;;;;4951767;28;20027;-88
2022/05/09 10:32:20;;;;;;;8.13;4.80;;;25.70;99.90;;;;;;4964722;28;20519;-89
2022/05/09 10:35:04;;;;;;;9.27;4.85;;;25.60;99.90;;;;;;4962970;28;20101;-87
2022/05/09 10:37:48;;;;;;;6.45;4.90;;;25.80;99.90;;;;;;4962107;28;20035;-90
2022/05/09 10:40:26;;;;;;;7.40;4.65;;;26.00;99.90;;;;;;4960357;28;20118;-88
2022/05/09 10:43:07;;;;;;;5.00;4.50;;;26.20;99.90;;;;;;4964484;28;20019;-89
2022/05/09 10:45:44;;;;;;;7.15;4.22;;;26.20;99.90;;;;;;4960007;28;20035;-88
2022/05/09 10:48:35;;;;;;;7.95;4.93;;;26.10;99.90;;;;;;4961147;28;20035;-88
2022/05/09 10:51:32;;;;;;;12.18;4.85;;;26.10;99.90;;;;;;4948886;28;20070;-90
2022/05/09 10:54:26;;;;;;;11.50;4.90;;;26.20;99.90;;;;;;4957486;28;20031;-88
2022/05/09 10:57:14;;;;;;;7.93;4.50;;;26.40;99.90;;;;;;4955715;28;20043;-89
2022/05/09 10:59:45;;;;;;;8.10;4.55;;;26.60;99.90;;;;;;4969485;28;20037;-89
2022/05/09 11:02:13;;;;;;;6.70;4.68;;;26.90;99.90;;;;;;4964522;28;20866;-88
2022/05/09 11:04:40;;;;;;;7.03;4.43;;;26.70;99.90;;;;;;4941648;28;20027;-88
2022/05/09 11:07:24;;;;;;;5.93;4.72;;;26.10;99.90;;;;;;4943229;28;20380;-88
2022/05/09 11:10:08;;;;;;;8.18;5.07;;;25.90;99.90;;;;;;4951488;28;20117;-87
2022/05/09 11:12:49;;;;;;;5.55;4.70;;;25.80;99.90;;;;;;4961460;28;20073;-88
2022/05/09 11:15:40;;;;;;;5.90;4.60;;;25.80;99.90;;;;;;4960000;28;20027;-88
2022/05/09 11:18:14;;;;;;;7.30;4.75;;;25.70;99.90;;;;;;4963720;28;20034;-87
2022/05/09 11:20:54;;;;;;;10.13;4.93;;;25.80;99.90;;;;;;4947671;28;20035;-88
2022/05/09 11:23:51;;;;;;;10.73;5.00;;;25.80;99.90;;;;;;4961249;28;20054;-88
2022/05/09 11:26:21;;;;;;;5.63;4.70;;;25.90;99.90;;;;;;4962143;28;20043;-88
2022/05/09 11:29:18;;;;;;;5.82;4.70;;;26.10;99.90;;;;;;4963854;28;20027;-87
2022/05/09 11:32:17;;;;;;;8.50;4.72;;;26.20;99.20;;;;;;4961912;28;20167;-86
2022/05/09 11:35:04;;;;;;;9.77;5.15;;;26.20;98.50;;;;;;4951473;28;20027;-88
2022/05/09 11:37:46;;;;;;;9.43;4.65;;;26.10;99.90;;;;;;4943855;28;20117;-90
2022/05/09 11:40:31;;;;;;;10.05;5.43;;;25.90;99.90;;;;;;4962519;28;20061;-85
2022/05/09 11:43:28;;;;;;;10.13;5.90;;;25.60;99.70;;;;;;4948329;28;20059;-90
2022/05/09 11:46:30;;;;;;;9.07;5.50;;;24.90;99.90;;;;;;4966409;28;20027;-91
2022/05/09 11:49:23;;;;;;;19.85;6.25;;;24.00;99.90;;;;;;4968793;28;20080;-90
2022/05/09 11:51:55;;;;;;;11.35;5.10;;;23.80;99.90;;;;;;4972596;28;20074;-90
2022/05/09 11:54:45;;;;;;;14.00;5.50;;;23.20;99.90;;;;;;4960181;28;20046;-91
2022/05/09 11:57:26;;;;;;;9.48;5.25;;;22.70;99.90;;;;;;4963035;28;20043;-89
2022/05/09 12:00:00;;;;;;;11.85;5.18;;;22.60;99.90;;;;;;4954379;28;20035;-87
2022/05/09 12:02:47;;;;;;;13.93;4.68;;;22.60;99.90;;;;;;4938087;28;20078;-90
2022/05/09 12:05:31;;;;;;;12.63;4.75;;;22.50;99.90;;;;;;4954068;28;20035;-89
2022/05/09 12:08:04;;;;;;;8.40;5.20;;;22.50;99.90;;;;;;4937187;29;20023;-88
2022/05/09 12:10:35;;;;;;;13.90;5.22;;;22.70;99.90;;;;;;4937506;29;20398;-89
2022/05/09 12:13:10;;;;;;;7.45;5.43;;;22.80;99.90;;;;;;4925961;29;20800;-89
2022/05/09 12:15:36;;;;;;;7.90;5.15;;;22.80;99.90;;;;;;4946780;28;20134;-87
2022/05/09 12:18:07;;;;;;;8.60;5.13;;;22.80;99.90;;;;;;4937351;29;20446;-89
2022/05/09 12:20:36;;;;;;;8.57;5.25;;;23.00;99.90;;;;;;4952794;28;20054;-89
2022/05/09 12:23:32;;;;;;;8.95;5.75;;;23.10;99.90;;;;;;4935754;29;20024;-87
2022/05/09 12:26:03;;;;;;;8.02;6.00;;;23.10;99.90;;;;;;4937173;28;20039;-89
2022/05/09 12:28:40;;;;;;;13.43;5.87;;;23.00;99.90;;;;;;4952000;29;20101;-88
2022/05/09 12:31:27;;;;;;;15.07;6.80;;;23.00;99.90;;;;;;4951218;28;20307;-89
2022/05/09 12:33:54;;;;;;;16.73;5.88;;;23.00;99.90;;;;;;4932337;28;20031;-88
2022/05/09 12:36:29;;;;;;;7.13;5.90;;;23.10;99.90;;;;;;4951051;28;20071;-88
2022/05/09 12:39:01;;;;;;;9.75;6.35;;;23.10;99.90;;;;;;4932915;29;20054;-88
2022/05/09 12:41:38;;;;;;;11.82;6.32;;;23.10;99.90;;;;;;4950607;28;20034;-87
2022/05/09 12:44:18;;;;;;;10.93;5.70;;;23.30;99.90;;;;;;4932128;29;20035;-88
2022/05/09 12:46:51;;;;;;;20.85;6.65;;;23.40;99.90;;;;;;4948819;28;20023;-85
2022/05/09 12:49:22;;;;;;;13.38;6.10;;;23.00;99.90;;;;;;4950708;28;20019;-88
2022/05/09 12:51:52;;;;;;;14.60;5.13;;;22.60;99.90;;;;;;4950253;28;20023;-88
2022/05/09 12:54:22;;;;;;;19.63;6.00;;;22.40;99.90;;;;;;4949566;29;20100;-90
2022/05/09 12:56:52;;;;;;;15.10;6.60;;;21.90;99.90;;;;;;4950740;28;20051;-86
2022/05/09 12:59:18;;;;;;;16.05;7.90;;;20.40;99.90;;;;;;4958048;28;20023;-87
2022/05/09 13:01:52;;;;;;;11.02;7.65;;;18.10;99.90;;;;;;4961970;28;20022;-87
2022/05/09 13:04:25;;;;;;;7.65;6.25;;;17.50;99.90;;;;;;4963119;28;20039;-86
2022/05/09 13:06:54;;;;;;;16.23;6.57;;;17.70;99.90;;;;;;4974545;28;20565;-85
2022/05/09 13:09:30;;;;;;;13.55;7.07;;;18.10;99.90;;;;;;4962439;28;20282;-85
2022/05/09 13:12:19;;;;;;;12.57;8.27;;;18.40;99.90;;;;;;4943094;28;20034;-86
2022/05/09 13:14:45;;;;;;;22.30;9.23;;;18.70;99.90;;;;;;4979099;28;20028;-87
2022/05/09 13:17:18;;;;;;;13.50;9.27;;;19.00;99.90;;;;;;4962754;28;20046;-86
2022/05/09 13:19:49;;;;;;;16.52;10.52;;;19.30;99.90;;;;;;4966987;28;20158;-85
2022/05/09 13:22:32;;;;;;;13.52;7.25;;;19.70;99.90;;;;;;4960708;28;20023;-86
2022/05/09 13:25:06;;;;;;;13.57;7.68;;;20.00;99.90;;;;;;4966682;28;20023;-86
2022/05/09 13:27:32;;;;;;;16.15;6.68;;;20.10;99.90;;;;;;4959671;28;20023;-87
2022/05/09 13:30:04;;;;;;;12.43;6.28;;;20.30;99.90;;;;;;4958560;28;20038;-86
2022/05/09 13:32:33;;;;;;;;;;;20.50;99.90;;;;;;4958957;28;20039;-87
2022/05/09 13:34:59;;;;;;;14.60;8.07;;;20.80;99.90;;;;;;4956449;28;20341;-87
2022/05/09 13:37:36;;;;;;;13.95;10.30;;;21.20;99.90;;;;;;4958997;28;20027;-88
2022/05/09 13:40:11;;;;;;;12.57;8.55;;;21.40;99.90;;;;;;4957008;28;20038;-86
2022/05/09 13:42:41;;;;;;;16.92;7.80;;;21.50;99.90;;;;;;4959411;28;20038;-86